Flight Track Log - Related Links

Times and Time Zones

All times are in EDT time to prevent confusion due to time zone crossing. See the N946RM flight status page for this flight to view local times or setup timezone preferences in your user account.

Time Position Orientation Groundspeed Altitude Reporting Facility
EDT Latitude Longitude Course Direction KTS MPH feet Rate Location/Type
Wed 10:59:16 PM 30.6614 -88.2108 58° Northeast 203 234 3,400  Level Houston Center
Wed 11:00:17 PM 30.6900 -88.1422 64° Northeast 252 290 6,800 3,122 Climbing Houston Center
Wed 11:01:19 PM 30.7403 -88.0781 48° Northeast 265 305 9,800 2,878 Climbing Houston Center
Wed 11:02:20 PM 30.7942 -88.0072 48° Northeast 287 330 12,700 2,213 Climbing Houston Center
Wed 11:03:21 PM 30.8661 -87.9108 49° Northeast 326 375 14,300 2,361 Climbing Houston Center
Wed 11:04:00 PM 30.7002 -88.2265 58° Northeast  Level FlightAware Approximate
Wed 11:04:22 PM 30.9306 -87.8400 43° Northeast 328 377 17,500  Level Houston Center
Wed 11:05:24 PM 30.9983 -87.7764 39° Northeast 320 368 20,400 2,488 Climbing Houston Center
Wed 11:06:25 PM 31.0683 -87.7131 38° Northeast 318 366 22,600 2,066 Climbing Houston Center
Wed 11:07:26 PM 31.1469 -87.6408 38° Northeast 339 390 24,600 1,967 Climbing Houston Center
Wed 11:08:27 PM 31.2308 -87.5625 39° Northeast 365 420 26,600 1,180 Climbing Houston Center
Wed 11:09:28 PM 31.3217 -87.4858 36° Northeast 387 445 27,000 683 Climbing Houston Center
Wed 11:10:30 PM 31.4600 -87.4439 15° North 417 480 28,000 488 Climbing Houston Center
Wed 11:11:31 PM 31.5764 -87.4067 15° North 425 489 28,000  Level Houston Center
Wed 11:12:32 PM 31.6950 -87.3683 15° North 434 499 28,000  Level Houston Center
Wed 11:13:33 PM 31.8161 -87.3286 16° North 443 510 28,000  Level Houston Center
Wed 11:14:34 PM 31.9356 -87.2903 15° North 446 513 28,000  Level Houston Center
Wed 11:15:35 PM 32.0542 -87.2519 15° North 445 512 28,000  Level Houston Center
Wed 11:16:37 PM 32.1733 -87.2131 15° North 445 512 28,000  Level Houston Center
Wed 11:17:38 PM 32.2925 -87.1758 15° North 445 512 28,000 -372 Level Houston Center
Wed 11:18:46 PM 32.4342 -87.1297 15° North 440 506 27,200  Descending Atlanta Center
Wed 11:19:46 PM 32.5500 -87.0919 15° North 434 499 28,000 -1,000 Climbing Atlanta Center
Wed 11:20:46 PM 32.6678 -87.0542 15° North 434 499 25,200 -2,150 Descending Atlanta Center
Wed 11:21:46 PM 32.7836 -87.0136 16° North 439 505 23,700 -1,927 Descending Atlanta Center
Wed 11:22:35 PM 32.8844 -86.9822 15° North 413 475 21,700 -2,100 Descending Atlanta Center
Wed 11:22:46 PM 32.8911 -86.9753 41° Northeast 421 484 21,600 -2,250 Descending Atlanta Center
Wed 11:23:23 PM 32.9644 -86.9553 13° North 388 447 19,900 -2,300 Descending Atlanta Center
Wed 11:23:46 PM 32.9961 -86.9439 17° North 398 458 19,300 -2,066 Descending Atlanta Center
Wed 11:24:24 PM 33.0614 -86.9214 16° North 366 421 17,800 -2,200 Descending Atlanta Center
Wed 11:24:46 PM 33.0928 -86.9100 17° North 381 438 17,100 -2,328 Descending Atlanta Center
Wed 11:25:31 PM 33.1664 -86.8900 13° North 320 368 15,200 -2,300 Descending Atlanta Center
Wed 11:25:46 PM 33.1811 -86.8808 28° Northeast 347 399 14,800 -2,300 Descending Atlanta Center
Wed 11:26:31 PM 33.2508 -86.8483 21° North 343 395 12,900 -2,300 Descending Atlanta Center
Wed 11:26:46 PM 33.2658 -86.8339 39° Northeast 335 386 12,500 -2,262 Descending Atlanta Center
Wed 11:27:32 PM 33.3272 -86.7886 32° Northeast 318 366 10,600 -2,700 Descending Atlanta Center
Wed 11:27:46 PM 33.3486 -86.7717 33° Northeast 324 373 9,800 -3,182 Descending Atlanta Center
Wed 11:28:38 PM 33.4100 -86.7314 29° Northeast 291 335 7,100 -3,000 Descending Atlanta Center
Wed 11:28:46 PM 33.4186 -86.7242 35° Northeast 306 352 6,800 -2,754 Descending Atlanta Center
Wed 11:29:39 PM 33.4778 -86.6886 27° Northeast 264 304 4,300 -2,700 Descending Atlanta Center
Wed 11:29:46 PM 33.4861 -86.6814 36° Northeast 288 331 4,100 -1,279 Descending Atlanta Center
Wed 11:30:40 PM 33.5328 -86.6506 29° Northeast 219 252 3,000 -1,100 Descending Atlanta Center
Wed 11:30:46 PM 33.5414 -86.6458 25° Northeast 254 292 3,000 -300 Level Atlanta Center
Wed 11:31:40 PM 33.5781 -86.6767 325° Northwest 172 198 2,700 -400 Descending Atlanta Center
Wed 11:31:46 PM 33.5822 -86.6769 357° North 173 199 2,600 -1,309 Descending Atlanta Center
Wed 11:32:35 PM 33.5858 -86.7144 277° West 126 145 1,500 -1,347 Descending Atlanta Center
Wed 11:34:00 PM 33.5639 -86.7523 231° Southwest  Level Estimated
Wed 11:41:00 PM 33.5639 -86.7523 231° Southwest  Level Estimated

Login

Don't have an account? Register now (free) for customized features, flight alerts, and more!